Strona główna
METAR-TAF:

METAR-TAF

Lotnisko :

Port lotniczy Szarm el-Szejk

Szarm el-Szejk, Egipt

Szerokość geograficzna: 27-58N, Długość geograficzna: 034-23E, wysokość: 50 m

Aktualna obserwacja pogody

Raport powstał 46 minut temu, godzina 06:00 UTC
Cisza
Temperatura 18°C
Wilgotność 64%
Ciśnienie 1016 hPa
Widzialność 10 km lub więcej
Brak chmur poniżej 1500 m i brak chmur cumulonimbus

METAR: HESH 130600Z 00000KT CAVOK 18/11 Q1016 NOSIG

czas: 08:46 (06:46 UTC)

Prognoza

Raport powstał 1 godzina i 46 minut temu, godzina 05:00 UTC
Prognoza ważna od 13 godzina 06 UTC do 14 godzina 12 UTC
Wiatr 8 kt od północ w porywach dochodzący do 20 kt
Widzialność 10 km lub więcej
Brak chmur poniżej 1500 m i brak chmur cumulonimbus
Przejściowo
od 13 godzina 09 UTC do 13 godzina 15 UTC
Widzialność: 4000 m
piasek

TAF: HESH 130500Z 1306/1412 01008G20KT CAVOK TEMPO 1309/1315 4000 SA NSC

Obserwacja i prognoza pogody dla ponad 4000 lotnisk (raport METAR i TAF).

Dostępne stacje oznaczono żółtymi i czerwonymi punktami na mapie.

Najedź kursorem aby zobaczyć nazwę stacji.

Kliknij aby zobaczyć obserwacje i prognozy pogody.

Aby zmienić mapę: kliknij na zielony przycisk z czarnym krzyżykiem, aby powiększyć; na zielony przycisk z myślnikiem, aby pomniejszyć; na zielone strzałki, aby przejść do map sąsiednich.


METAR-TAF: